createdAt,value
2022-12-29T00:01:34.765Z,1001.64
2022-12-29T00:02:34.837Z,1001.69
2022-12-29T00:04:38.724Z,1001.60
2022-12-29T00:05:38.726Z,1001.61
2022-12-29T00:07:42.701Z,1001.50
2022-12-29T00:08:42.757Z,1001.54
2022-12-29T00:09:42.676Z,1001.51
2022-12-29T00:10:42.668Z,1001.58
2022-12-29T00:11:42.668Z,1001.56
2022-12-29T00:12:42.650Z,1001.52
2022-12-29T00:13:42.656Z,1001.56
2022-12-29T00:14:42.652Z,1001.46
2022-12-29T00:15:42.702Z,1001.49
2022-12-29T00:16:42.629Z,1001.43
2022-12-29T00:17:42.619Z,1001.52
2022-12-29T00:18:42.620Z,1001.44
2022-12-29T00:19:42.604Z,1001.43
2022-12-29T00:20:42.605Z,1001.44
2022-12-29T00:21:42.599Z,1001.43
2022-12-29T00:22:42.591Z,1001.44
2022-12-29T00:23:42.696Z,1001.42
2022-12-29T00:24:42.588Z,1001.43
2022-12-29T00:25:42.589Z,1001.34
2022-12-29T00:26:42.578Z,1001.39
2022-12-29T00:27:42.573Z,1001.39
2022-12-29T00:28:42.553Z,1001.40
2022-12-29T00:29:42.543Z,1001.40
2022-12-29T00:30:42.565Z,1001.36
2022-12-29T00:31:42.573Z,1001.33
2022-12-29T00:32:42.536Z,1001.36
2022-12-29T00:33:42.547Z,1001.32
2022-12-29T00:34:42.518Z,1001.37
2022-12-29T00:35:42.508Z,1001.28
2022-12-29T00:36:42.506Z,1001.31
2022-12-29T00:37:42.535Z,1001.29
2022-12-29T00:38:42.488Z,1001.26
2022-12-29T00:39:42.485Z,1001.26
2022-12-29T00:40:42.495Z,1001.28
2022-12-29T00:41:42.485Z,1001.22
2022-12-29T00:42:42.470Z,1001.22
2022-12-29T00:43:42.461Z,1001.26
2022-12-29T00:44:42.462Z,1001.26
2022-12-29T00:45:42.463Z,1001.20
2022-12-29T00:46:42.457Z,1001.29
2022-12-29T00:47:42.451Z,1001.24
2022-12-29T00:48:42.452Z,1001.32
2022-12-29T00:49:42.417Z,1001.25
2022-12-29T00:50:42.432Z,1001.25
2022-12-29T00:51:42.430Z,1001.23
2022-12-29T00:52:42.400Z,1001.20
2022-12-29T00:53:42.401Z,1001.20
2022-12-29T00:54:42.400Z,1001.13
2022-12-29T00:55:42.385Z,1001.13
2022-12-29T00:56:42.394Z,1001.19
2022-12-29T00:57:42.411Z,1001.22
2022-12-29T00:58:42.373Z,1001.22
2022-12-29T00:59:42.368Z,1001.17
2022-12-29T01:00:42.416Z,1001.24
2022-12-29T01:01:42.461Z,1001.16
2022-12-29T01:02:42.502Z,1001.18
2022-12-29T01:03:42.332Z,1001.15
2022-12-29T01:04:42.331Z,1001.17
2022-12-29T01:05:42.331Z,1001.17
2022-12-29T01:06:42.327Z,1001.18
2022-12-29T01:07:42.331Z,1001.13
2022-12-29T01:08:42.311Z,1001.12
2022-12-29T01:09:42.313Z,1001.13
2022-12-29T01:10:42.297Z,1001.08
2022-12-29T01:11:42.310Z,1001.06
2022-12-29T01:12:42.364Z,1001.05
2022-12-29T01:13:42.313Z,1001.15
2022-12-29T01:14:42.284Z,1001.16
2022-12-29T01:15:42.279Z,1001.18
2022-12-29T01:16:42.284Z,1001.14
2022-12-29T01:17:42.248Z,1001.11
2022-12-29T01:18:42.273Z,1001.09
2022-12-29T01:19:42.246Z,1001.12
2022-12-29T01:20:42.250Z,1001.06
2022-12-29T01:21:42.231Z,1001.05
2022-12-29T01:22:42.227Z,1001.08
2022-12-29T01:23:42.226Z,1001.08
2022-12-29T01:24:42.209Z,1001.00
2022-12-29T01:25:42.205Z,1001.00
2022-12-29T01:26:42.206Z,1001.12
2022-12-29T01:27:42.200Z,1001.22
2022-12-29T01:28:42.213Z,1001.22
2022-12-29T01:29:42.218Z,1001.18
2022-12-29T01:30:42.181Z,1001.14
2022-12-29T01:31:42.224Z,1001.09
2022-12-29T01:32:42.172Z,1001.09
2022-12-29T01:33:42.154Z,1001.14
2022-12-29T01:34:42.156Z,1001.09
2022-12-29T01:35:42.142Z,1001.10
2022-12-29T01:36:42.144Z,1001.08
2022-12-29T01:37:42.133Z,1001.06
2022-12-29T01:38:42.125Z,1001.08
2022-12-29T01:39:42.115Z,1001.07
2022-12-29T01:40:42.118Z,1001.08
2022-12-29T01:41:42.116Z,1001.06
2022-12-29T01:42:42.154Z,1001.07
2022-12-29T01:43:42.096Z,1001.11
2022-12-29T01:44:42.090Z,1001.09
2022-12-29T01:45:42.145Z,1001.03
2022-12-29T01:46:42.087Z,1001.05
2022-12-29T01:47:42.074Z,1001.07
2022-12-29T01:48:42.064Z,1001.05
2022-12-29T01:49:42.058Z,1001.06
2022-12-29T01:50:42.072Z,1001.12
2022-12-29T01:51:42.048Z,1001.04
2022-12-29T01:52:42.056Z,1000.92
2022-12-29T01:53:42.043Z,1000.98
2022-12-29T01:54:42.030Z,1000.95
2022-12-29T01:55:42.025Z,1001.02
2022-12-29T01:56:42.019Z,1000.96
2022-12-29T01:57:42.029Z,1000.98
2022-12-29T01:58:42.012Z,1000.89
2022-12-29T01:59:42.013Z,1000.87
2022-12-29T02:00:42.014Z,1000.84
2022-12-29T02:01:42.061Z,1000.82
2022-12-29T02:02:42.295Z,1000.78
2022-12-29T02:03:42.045Z,1000.77
2022-12-29T02:04:41.987Z,1000.76
2022-12-29T02:05:41.958Z,1000.74
2022-12-29T02:06:41.955Z,1000.79
2022-12-29T02:07:41.956Z,1000.77
2022-12-29T02:08:41.952Z,1000.71
2022-12-29T02:09:41.939Z,1000.76
2022-12-29T02:10:41.954Z,1000.76
2022-12-29T02:11:41.966Z,1000.73
2022-12-29T02:12:41.912Z,1000.71
2022-12-29T02:13:41.909Z,1000.71
2022-12-29T02:14:41.908Z,1000.70
2022-12-29T02:15:41.908Z,1000.70
2022-12-29T02:16:41.930Z,1000.66
2022-12-29T02:17:41.914Z,1000.72
2022-12-29T02:18:41.887Z,1000.65
2022-12-29T02:19:41.873Z,1000.65
2022-12-29T02:20:41.867Z,1000.61
2022-12-29T02:21:41.882Z,1000.58
2022-12-29T02:22:41.874Z,1000.56
2022-12-29T02:23:41.848Z,1000.56
2022-12-29T02:24:41.843Z,1000.53
2022-12-29T02:25:41.835Z,1000.55
2022-12-29T02:26:41.846Z,1000.58
2022-12-29T02:27:41.846Z,1000.57
2022-12-29T02:28:41.822Z,1000.57
2022-12-29T02:29:41.824Z,1000.51
2022-12-29T02:30:41.807Z,1000.52
2022-12-29T02:31:41.881Z,1000.47
2022-12-29T02:32:41.793Z,1000.53
2022-12-29T02:33:41.806Z,1000.57
2022-12-29T02:34:41.783Z,1000.61
2022-12-29T02:35:41.780Z,1000.53
2022-12-29T02:36:41.771Z,1000.52
2022-12-29T02:37:41.768Z,1000.53
2022-12-29T02:38:41.758Z,1000.45
2022-12-29T02:39:41.757Z,1000.46
2022-12-29T02:40:41.742Z,1000.48
2022-12-29T02:41:41.747Z,1000.44
2022-12-29T02:42:41.748Z,1000.50
2022-12-29T02:43:41.735Z,1000.46
2022-12-29T02:44:41.720Z,1000.43
2022-12-29T02:45:41.757Z,1000.49
2022-12-29T02:46:41.720Z,1000.51
2022-12-29T02:47:41.707Z,1000.48
2022-12-29T02:48:41.694Z,1000.48
2022-12-29T02:49:41.689Z,1000.50
2022-12-29T02:50:41.689Z,1000.51
2022-12-29T02:51:41.685Z,1000.49
2022-12-29T02:52:41.670Z,1000.47
2022-12-29T02:53:41.677Z,1000.51
2022-12-29T02:54:41.662Z,1000.51
2022-12-29T02:55:41.666Z,1000.51
2022-12-29T02:56:41.656Z,1000.45
2022-12-29T02:57:41.645Z,1000.49
2022-12-29T02:58:41.647Z,1000.49
2022-12-29T02:59:41.632Z,1000.50
2022-12-29T03:00:41.620Z,1000.40
2022-12-29T03:01:41.662Z,1000.38
2022-12-29T03:02:41.783Z,1000.41
2022-12-29T03:03:41.627Z,1000.37
2022-12-29T03:04:41.607Z,1000.36
2022-12-29T03:05:41.617Z,1000.38
2022-12-29T03:06:41.585Z,1000.41
2022-12-29T03:07:41.589Z,1000.35
2022-12-29T03:08:41.591Z,1000.30
2022-12-29T03:09:41.576Z,1000.29
2022-12-29T03:10:41.584Z,1000.25
2022-12-29T03:11:41.592Z,1000.31
2022-12-29T03:12:41.559Z,1000.30
2022-12-29T03:13:41.558Z,1000.25
2022-12-29T03:14:41.535Z,1000.22
2022-12-29T03:15:41.537Z,1000.17
2022-12-29T03:16:41.557Z,1000.14
2022-12-29T03:17:41.565Z,1000.14
2022-12-29T03:18:41.538Z,1000.10
2022-12-29T03:19:41.567Z,1000.15
2022-12-29T03:20:41.505Z,1000.18
2022-12-29T03:21:41.516Z,1000.12
2022-12-29T03:22:41.518Z,1000.13
2022-12-29T03:23:41.513Z,1000.11
2022-12-29T03:24:41.491Z,1000.10
2022-12-29T03:25:41.502Z,1000.15
2022-12-29T03:26:41.471Z,1000.18
2022-12-29T03:27:41.481Z,1000.15
2022-12-29T03:28:41.469Z,1000.14
2022-12-29T03:29:41.461Z,1000.14
2022-12-29T03:30:41.509Z,1000.12
2022-12-29T03:31:41.450Z,1000.11
2022-12-29T03:32:41.441Z,1000.10
2022-12-29T03:33:41.433Z,1000.18
2022-12-29T03:34:41.457Z,1000.14
2022-12-29T03:35:41.435Z,1000.16
2022-12-29T03:36:41.430Z,1000.20
2022-12-29T03:37:41.419Z,1000.19
2022-12-29T03:38:41.420Z,1000.14
2022-12-29T03:39:41.404Z,1000.10
2022-12-29T03:40:41.392Z,1000.15
2022-12-29T03:41:41.434Z,1000.12
2022-12-29T03:42:41.388Z,1000.06
2022-12-29T03:43:41.388Z,1000.12
2022-12-29T03:44:41.394Z,1000.07
2022-12-29T03:45:41.379Z,1000.03
2022-12-29T03:46:41.428Z,1000.02
2022-12-29T03:47:41.357Z,1000.03
2022-12-29T03:48:41.361Z,1000.08
2022-12-29T03:49:41.347Z,1000.06
2022-12-29T03:50:41.349Z,1000.04
2022-12-29T03:51:41.344Z,1000.08
2022-12-29T03:52:41.332Z,1000.11
2022-12-29T03:53:41.376Z,1000.11
2022-12-29T03:54:41.323Z,1000.13
2022-12-29T03:55:41.357Z,1000.11
2022-12-29T03:56:41.313Z,1000.09
2022-12-29T03:57:41.324Z,1000.09
2022-12-29T03:58:41.298Z,1000.14
2022-12-29T03:59:41.290Z,1000.14
2022-12-29T04:00:41.295Z,1000.13
2022-12-29T04:01:41.436Z,1000.16
2022-12-29T04:02:41.524Z,1000.17
2022-12-29T04:03:41.353Z,1000.13
2022-12-29T04:04:41.294Z,1000.13
2022-12-29T04:05:41.263Z,1000.09
2022-12-29T04:06:41.250Z,1000.04
2022-12-29T04:07:41.267Z,1000.02
2022-12-29T04:08:41.271Z,999.96
2022-12-29T04:09:41.233Z,999.97
2022-12-29T04:10:41.260Z,1000.04
2022-12-29T04:11:41.227Z,1000.04
2022-12-29T04:12:41.218Z,1000.04
2022-12-29T04:13:41.212Z,1000.04
2022-12-29T04:14:41.209Z,1000.03
2022-12-29T04:15:41.246Z,1000.07
2022-12-29T04:16:41.228Z,1000.00
2022-12-29T04:17:41.196Z,1000.03
2022-12-29T04:18:41.198Z,999.93
2022-12-29T04:19:41.182Z,1000.00
2022-12-29T04:20:41.179Z,999.94
2022-12-29T04:21:41.178Z,1000.02
2022-12-29T04:22:41.169Z,1000.04
2022-12-29T04:23:41.169Z,1000.06
2022-12-29T04:24:41.171Z,1000.05
2022-12-29T04:25:41.149Z,1000.06
2022-12-29T04:26:41.157Z,1000.10
2022-12-29T04:27:41.134Z,1000.12
2022-12-29T04:28:41.137Z,1000.06
2022-12-29T04:29:41.124Z,1000.03
2022-12-29T04:30:41.128Z,999.99
2022-12-29T04:31:41.260Z,1000.03
2022-12-29T04:32:41.113Z,999.95
2022-12-29T04:33:41.148Z,999.93
2022-12-29T04:34:41.100Z,999.98
2022-12-29T04:35:41.121Z,999.94
2022-12-29T04:36:41.086Z,999.94
2022-12-29T04:37:41.093Z,999.88
2022-12-29T04:38:41.079Z,999.81
2022-12-29T04:39:41.075Z,999.84
2022-12-29T04:40:41.060Z,999.84
2022-12-29T04:41:41.063Z,999.85
2022-12-29T04:42:41.060Z,999.85
2022-12-29T04:43:41.053Z,999.93
2022-12-29T04:44:45.041Z,999.93
2022-12-29T04:45:41.047Z,999.91
2022-12-29T04:46:41.081Z,999.87
2022-12-29T04:47:41.052Z,999.84
2022-12-29T04:48:41.099Z,999.88
2022-12-29T04:49:41.031Z,999.91
2022-12-29T04:50:41.014Z,999.91
2022-12-29T04:51:41.022Z,999.87
2022-12-29T04:52:40.994Z,999.80
2022-12-29T04:53:41.012Z,999.80
2022-12-29T04:54:41.011Z,999.79
2022-12-29T04:55:40.990Z,999.86
2022-12-29T04:56:40.992Z,999.79
2022-12-29T04:57:40.996Z,999.69
2022-12-29T04:58:40.968Z,999.65
2022-12-29T04:59:40.971Z,999.66
2022-12-29T05:00:40.955Z,999.69
2022-12-29T05:01:41.033Z,999.76
2022-12-29T05:02:41.163Z,999.70
2022-12-29T05:03:41.083Z,999.78
2022-12-29T05:04:40.938Z,999.82
2022-12-29T05:05:40.942Z,999.82
2022-12-29T05:06:40.928Z,999.89
2022-12-29T05:07:40.924Z,999.84
2022-12-29T05:08:40.918Z,999.78
2022-12-29T05:09:40.912Z,999.79
2022-12-29T05:10:40.941Z,999.81
2022-12-29T05:11:40.928Z,999.79
2022-12-29T05:12:40.936Z,999.77
2022-12-29T05:13:40.900Z,999.81
2022-12-29T05:14:40.910Z,999.75
2022-12-29T05:15:40.943Z,999.75
2022-12-29T05:16:40.942Z,999.69
2022-12-29T05:17:40.868Z,999.73
2022-12-29T05:18:40.864Z,999.63
2022-12-29T05:19:40.862Z,999.59
2022-12-29T05:20:40.846Z,999.59
2022-12-29T05:21:40.866Z,999.59
2022-12-29T05:22:40.847Z,999.62
2022-12-29T05:23:40.847Z,999.59
2022-12-29T05:24:40.848Z,999.62
2022-12-29T05:25:40.837Z,999.63
2022-12-29T05:26:40.814Z,999.59
2022-12-29T05:27:40.823Z,999.61
2022-12-29T05:28:40.835Z,999.51
2022-12-29T05:29:40.810Z,999.54
2022-12-29T05:30:40.828Z,999.47
2022-12-29T05:31:40.850Z,999.43
2022-12-29T05:32:40.786Z,999.47
2022-12-29T05:33:40.789Z,999.50
2022-12-29T05:34:40.793Z,999.49
2022-12-29T05:35:40.769Z,999.50
2022-12-29T05:36:40.769Z,999.54
2022-12-29T05:37:40.755Z,999.42
2022-12-29T05:38:40.779Z,999.49
2022-12-29T05:39:40.768Z,999.44
2022-12-29T05:40:40.742Z,999.44
2022-12-29T05:41:40.742Z,999.36
2022-12-29T05:42:40.750Z,999.40
2022-12-29T05:43:40.774Z,999.34
2022-12-29T05:44:40.737Z,999.31
2022-12-29T05:45:40.725Z,999.37
2022-12-29T05:46:40.826Z,999.37
2022-12-29T05:47:40.720Z,999.38
2022-12-29T05:48:40.722Z,999.36
2022-12-29T05:49:40.697Z,999.40
2022-12-29T05:50:40.690Z,999.45
2022-12-29T05:51:40.697Z,999.40
2022-12-29T05:52:40.695Z,999.36
2022-12-29T05:53:40.695Z,999.43
2022-12-29T05:54:40.669Z,999.31
2022-12-29T05:55:46.596Z,999.37
2022-12-29T05:56:40.678Z,999.38
2022-12-29T05:57:40.672Z,999.32
2022-12-29T05:58:40.669Z,999.27
2022-12-29T05:59:47.830Z,999.31
2022-12-29T06:01:44.813Z,999.34
2022-12-29T06:02:44.918Z,999.32
2022-12-29T06:04:48.634Z,999.31
2022-12-29T06:05:48.610Z,999.31
2022-12-29T06:07:52.635Z,999.28
2022-12-29T06:08:52.594Z,999.19
2022-12-29T06:10:46.037Z,999.27
2022-12-29T06:11:46.009Z,999.30
2022-12-29T06:13:50.037Z,999.34
2022-12-29T06:14:49.999Z,999.30
2022-12-29T06:16:43.244Z,999.23
2022-12-29T06:17:43.090Z,999.22
2022-12-29T06:19:47.069Z,999.18
2022-12-29T06:20:47.067Z,999.22
2022-12-29T06:22:51.052Z,999.16
2022-12-29T06:23:51.045Z,999.24
2022-12-29T06:25:55.089Z,999.25
2022-12-29T06:26:55.037Z,999.27
2022-12-29T06:28:59.059Z,999.21
2022-12-29T06:29:59.027Z,999.27
2022-12-29T06:32:03.039Z,999.29
2022-12-29T06:33:02.985Z,999.20
2022-12-29T06:35:07.472Z,999.26
2022-12-29T06:36:06.958Z,999.20
2022-12-29T06:38:10.975Z,999.21
2022-12-29T06:39:10.948Z,999.25
2022-12-29T06:41:14.942Z,999.32
2022-12-29T06:42:14.919Z,999.23
2022-12-29T06:44:18.936Z,999.36
2022-12-29T06:45:18.899Z,999.39
2022-12-29T06:47:22.868Z,999.31
2022-12-29T06:48:22.857Z,999.38
2022-12-29T06:50:15.773Z,999.37
2022-12-29T06:51:15.754Z,999.45
2022-12-29T06:53:19.729Z,999.47
2022-12-29T06:54:19.719Z,999.46
2022-12-29T06:56:23.708Z,999.51
2022-12-29T06:57:23.685Z,999.50
2022-12-29T06:59:28.170Z,999.51
2022-12-29T07:00:28.160Z,999.54
2022-12-29T07:01:28.311Z,999.56
2022-12-29T07:02:28.386Z,999.56
2022-12-29T07:03:28.228Z,999.54
2022-12-29T07:04:28.155Z,999.44
2022-12-29T07:05:28.128Z,999.53
2022-12-29T07:06:28.135Z,999.55
2022-12-29T07:07:28.122Z,999.54
2022-12-29T07:08:28.119Z,999.50
2022-12-29T07:09:28.118Z,999.52
2022-12-29T07:10:28.116Z,999.41
2022-12-29T07:11:28.096Z,999.45
2022-12-29T07:12:28.104Z,999.44
2022-12-29T07:13:28.088Z,999.49
2022-12-29T07:14:28.087Z,999.52
2022-12-29T07:15:28.075Z,999.58
2022-12-29T07:16:28.140Z,999.57
2022-12-29T07:17:28.065Z,999.54
2022-12-29T07:18:28.118Z,999.58
2022-12-29T07:19:28.061Z,999.66
2022-12-29T07:20:28.077Z,999.63
2022-12-29T07:21:28.050Z,999.60
2022-12-29T07:22:28.052Z,999.58
2022-12-29T07:23:28.046Z,999.61
2022-12-29T07:24:28.036Z,999.59
2022-12-29T07:25:28.030Z,999.59
2022-12-29T07:26:32.894Z,999.65
2022-12-29T07:27:28.012Z,999.61
2022-12-29T07:28:28.012Z,999.56
2022-12-29T07:29:28.003Z,999.59
2022-12-29T07:30:28.103Z,999.58
2022-12-29T07:31:28.075Z,999.56
2022-12-29T07:32:28.000Z,999.57
2022-12-29T07:33:27.999Z,999.59
2022-12-29T07:34:27.998Z,999.60
2022-12-29T07:35:27.976Z,999.56
2022-12-29T07:36:33.993Z,999.58
2022-12-29T07:37:27.971Z,999.50
2022-12-29T07:38:27.960Z,999.53
2022-12-29T07:39:27.960Z,999.48
2022-12-29T07:40:28.016Z,999.51
2022-12-29T07:41:27.952Z,999.49
2022-12-29T07:42:27.950Z,999.44
2022-12-29T07:43:27.960Z,999.50
2022-12-29T07:44:27.939Z,999.55
2022-12-29T07:45:27.931Z,999.52
2022-12-29T07:46:55.133Z,999.43
2022-12-29T07:47:27.921Z,999.52
2022-12-29T07:48:27.908Z,999.43
2022-12-29T07:49:27.910Z,999.47
2022-12-29T07:50:27.909Z,999.49
2022-12-29T07:51:27.911Z,999.53
2022-12-29T07:52:27.890Z,999.54
2022-12-29T07:53:27.888Z,999.54
2022-12-29T07:54:27.880Z,999.53
2022-12-29T07:55:27.876Z,999.53
2022-12-29T07:56:27.869Z,999.57
2022-12-29T07:57:31.782Z,999.58
2022-12-29T07:58:27.859Z,999.59
2022-12-29T07:59:27.865Z,999.62
2022-12-29T08:00:27.858Z,999.64
2022-12-29T08:01:27.935Z,999.60
2022-12-29T08:02:28.110Z,999.64
2022-12-29T08:03:27.887Z,999.55
2022-12-29T08:04:27.840Z,999.50
2022-12-29T08:05:27.833Z,999.55
2022-12-29T08:06:27.829Z,999.57
2022-12-29T08:07:27.830Z,999.60
2022-12-29T08:08:27.821Z,999.66
2022-12-29T08:09:27.881Z,999.61
2022-12-29T08:10:27.904Z,999.60
2022-12-29T08:11:27.807Z,999.62
2022-12-29T08:12:27.803Z,999.57
2022-12-29T08:13:27.799Z,999.64
2022-12-29T08:14:27.788Z,999.49
2022-12-29T08:15:32.323Z,999.59
2022-12-29T08:16:27.808Z,999.45
2022-12-29T08:17:27.777Z,999.51
2022-12-29T08:18:27.761Z,999.43
2022-12-29T08:19:27.771Z,999.37
2022-12-29T08:20:27.776Z,999.37
2022-12-29T08:21:27.775Z,999.47
2022-12-29T08:22:27.755Z,999.51
2022-12-29T08:23:27.745Z,999.57
2022-12-29T08:24:27.731Z,999.52
2022-12-29T08:25:27.763Z,999.56
2022-12-29T08:26:27.737Z,999.57
2022-12-29T08:27:27.733Z,999.63
2022-12-29T08:28:27.736Z,999.60
2022-12-29T08:29:27.733Z,999.58
2022-12-29T08:30:27.726Z,999.46
2022-12-29T08:31:27.863Z,999.39
2022-12-29T08:32:27.725Z,999.43
2022-12-29T08:33:27.701Z,999.47
2022-12-29T08:34:27.706Z,999.52
2022-12-29T08:35:27.687Z,999.43
2022-12-29T08:36:27.688Z,999.46
2022-12-29T08:37:31.217Z,999.52
2022-12-29T08:38:27.775Z,999.40
2022-12-29T08:39:27.700Z,999.40
2022-12-29T08:40:27.677Z,999.31
2022-12-29T08:41:27.658Z,999.40
2022-12-29T08:42:27.662Z,999.30
2022-12-29T08:43:27.652Z,999.35
2022-12-29T08:44:27.654Z,999.36
2022-12-29T08:45:27.710Z,999.40
2022-12-29T08:46:27.688Z,999.46
2022-12-29T08:47:27.637Z,999.49
2022-12-29T08:48:27.634Z,999.48
2022-12-29T08:49:27.666Z,999.49
2022-12-29T08:50:27.620Z,999.46
2022-12-29T08:51:27.635Z,999.42
2022-12-29T08:52:27.623Z,999.35
2022-12-29T08:53:27.618Z,999.41
2022-12-29T08:54:27.610Z,999.46
2022-12-29T08:55:27.600Z,999.45
2022-12-29T08:56:27.659Z,999.45
2022-12-29T08:57:27.589Z,999.54
2022-12-29T08:58:27.584Z,999.42
2022-12-29T08:59:27.615Z,999.43
2022-12-29T09:00:27.575Z,999.45
2022-12-29T09:01:27.689Z,999.47
2022-12-29T09:02:27.768Z,999.38
2022-12-29T09:04:03.745Z,999.37
2022-12-29T09:04:27.736Z,999.40
2022-12-29T09:05:27.551Z,999.32
2022-12-29T09:06:27.594Z,999.38
2022-12-29T09:07:27.564Z,999.33
2022-12-29T09:08:27.549Z,999.35
2022-12-29T09:09:27.589Z,999.41
2022-12-29T09:10:27.576Z,999.43
2022-12-29T09:11:27.540Z,999.33
2022-12-29T09:12:32.935Z,999.41
2022-12-29T09:13:27.560Z,999.41
2022-12-29T09:14:27.522Z,999.47
2022-12-29T09:15:27.545Z,999.36
2022-12-29T09:16:27.588Z,999.47
2022-12-29T09:17:27.549Z,999.49
2022-12-29T09:18:27.515Z,999.44
2022-12-29T09:19:27.503Z,999.41
2022-12-29T09:20:27.564Z,999.44
2022-12-29T09:21:27.500Z,999.37
2022-12-29T09:22:27.494Z,999.41
2022-12-29T09:23:27.538Z,999.47
2022-12-29T09:24:27.509Z,999.49
2022-12-29T09:25:27.486Z,999.52
2022-12-29T09:26:27.499Z,999.42
2022-12-29T09:27:27.495Z,999.45
2022-12-29T09:28:27.489Z,999.44
2022-12-29T09:29:27.480Z,999.44
2022-12-29T09:30:27.481Z,999.43
2022-12-29T09:31:27.535Z,999.43
2022-12-29T09:32:32.660Z,999.40
2022-12-29T09:33:27.469Z,999.38
2022-12-29T09:34:27.525Z,999.34
2022-12-29T09:35:27.468Z,999.36
2022-12-29T09:36:27.466Z,999.30
2022-12-29T09:37:27.476Z,999.40
2022-12-29T09:38:27.483Z,999.38
2022-12-29T09:39:27.447Z,999.31
2022-12-29T09:40:27.481Z,999.37
2022-12-29T09:41:27.483Z,999.27
2022-12-29T09:42:27.471Z,999.27
2022-12-29T09:43:27.447Z,999.28
2022-12-29T09:44:27.445Z,999.24
2022-12-29T09:45:27.445Z,999.25
2022-12-29T09:46:27.504Z,999.18
2022-12-29T09:47:27.459Z,999.22
2022-12-29T09:48:27.439Z,999.24
2022-12-29T09:49:27.473Z,999.18
2022-12-29T09:50:27.428Z,999.16
2022-12-29T09:51:27.465Z,999.10
2022-12-29T09:52:27.468Z,999.12
2022-12-29T09:53:27.443Z,999.10
2022-12-29T09:54:27.419Z,999.14
2022-12-29T09:55:27.454Z,999.29
2022-12-29T09:56:27.414Z,999.26
2022-12-29T09:57:27.413Z,999.27
2022-12-29T09:58:27.414Z,999.27
2022-12-29T09:59:27.411Z,999.22
2022-12-29T10:00:27.404Z,999.22
2022-12-29T10:01:27.539Z,999.20
2022-12-29T10:02:27.555Z,999.18
2022-12-29T10:03:27.514Z,999.19
2022-12-29T10:04:27.396Z,999.22
2022-12-29T10:05:27.448Z,999.25
2022-12-29T10:06:27.386Z,999.24
2022-12-29T10:07:29.962Z,999.23
2022-12-29T10:08:27.385Z,999.13
2022-12-29T10:09:27.422Z,999.17
2022-12-29T10:10:27.370Z,999.21
2022-12-29T10:11:27.373Z,999.08
2022-12-29T10:12:27.356Z,999.18
2022-12-29T10:13:27.395Z,999.20
2022-12-29T10:14:27.350Z,999.27
2022-12-29T10:15:27.367Z,999.20
2022-12-29T10:16:27.419Z,999.14
2022-12-29T10:17:27.346Z,999.21
2022-12-29T10:18:27.328Z,999.22
2022-12-29T10:19:32.973Z,999.30
2022-12-29T10:20:27.328Z,999.20
2022-12-29T10:21:27.355Z,999.20
2022-12-29T10:22:27.348Z,999.08
2022-12-29T10:23:27.334Z,999.09
2022-12-29T10:24:27.367Z,999.06
2022-12-29T10:25:31.221Z,999.05
2022-12-29T10:26:27.353Z,999.13
2022-12-29T10:27:27.362Z,998.97
2022-12-29T10:28:27.318Z,999.08
2022-12-29T10:29:27.310Z,999.03
2022-12-29T10:30:27.316Z,999.09
2022-12-29T10:31:27.346Z,999.02
2022-12-29T10:32:27.316Z,998.99
2022-12-29T10:33:27.325Z,999.03
2022-12-29T10:34:27.322Z,999.04
2022-12-29T10:35:27.279Z,999.00
2022-12-29T10:36:27.276Z,998.97
2022-12-29T10:37:33.456Z,998.85
2022-12-29T10:38:27.337Z,999.01
2022-12-29T10:39:27.272Z,998.97
2022-12-29T10:40:27.272Z,998.91
2022-12-29T10:41:27.274Z,999.03
2022-12-29T10:42:27.256Z,998.97
2022-12-29T10:43:27.269Z,998.94
2022-12-29T10:44:27.280Z,998.89
2022-12-29T10:45:27.307Z,998.96
2022-12-29T10:46:27.314Z,999.02
2022-12-29T10:47:27.269Z,998.99
2022-12-29T10:48:31.814Z,999.05
2022-12-29T10:49:27.239Z,998.98
2022-12-29T10:50:27.229Z,998.96
2022-12-29T10:51:27.236Z,998.97
2022-12-29T10:52:27.240Z,998.95
2022-12-29T10:53:27.230Z,998.98
2022-12-29T10:54:27.242Z,999.00
2022-12-29T10:55:27.207Z,998.95
2022-12-29T10:56:27.206Z,999.02
2022-12-29T10:57:27.254Z,998.95
2022-12-29T10:58:27.204Z,998.99
2022-12-29T10:59:27.197Z,999.04
2022-12-29T11:00:27.192Z,998.98
2022-12-29T11:01:27.284Z,999.02
2022-12-29T11:02:27.457Z,999.03
2022-12-29T11:03:27.266Z,999.03
2022-12-29T11:04:27.235Z,999.08
2022-12-29T11:05:27.187Z,998.94
2022-12-29T11:06:27.165Z,998.97
2022-12-29T11:07:27.779Z,999.04
2022-12-29T11:08:27.183Z,999.06
2022-12-29T11:09:41.405Z,999.07
2022-12-29T11:10:27.152Z,999.15
2022-12-29T11:11:27.199Z,999.15
2022-12-29T11:12:27.155Z,999.01
2022-12-29T11:13:27.143Z,998.96
2022-12-29T11:14:27.136Z,999.08
2022-12-29T11:15:27.143Z,999.07
2022-12-29T11:16:27.151Z,999.09
2022-12-29T11:17:27.129Z,998.97
2022-12-29T11:18:27.182Z,999.01
2022-12-29T11:19:27.178Z,999.05
2022-12-29T11:20:27.167Z,999.02
2022-12-29T11:21:27.131Z,999.01
2022-12-29T11:22:27.131Z,998.96
2022-12-29T11:23:27.148Z,999.01
2022-12-29T11:24:27.155Z,999.14
2022-12-29T11:25:27.161Z,999.00
2022-12-29T11:26:33.628Z,999.08
2022-12-29T11:27:27.109Z,999.25
2022-12-29T11:28:27.083Z,999.13
2022-12-29T11:29:27.105Z,999.09
2022-12-29T11:30:27.085Z,999.11
2022-12-29T11:31:27.120Z,999.19
2022-12-29T11:32:29.162Z,999.22
2022-12-29T11:33:27.083Z,999.17
2022-12-29T11:34:27.104Z,999.17
2022-12-29T11:35:27.065Z,999.17
2022-12-29T11:36:27.060Z,999.20
2022-12-29T11:37:27.044Z,999.26
2022-12-29T11:38:27.055Z,999.25
2022-12-29T11:39:27.045Z,999.35
2022-12-29T11:40:27.042Z,999.28
2022-12-29T11:41:27.078Z,999.21
2022-12-29T11:42:27.040Z,999.33
2022-12-29T11:43:27.137Z,999.25
2022-12-29T11:44:27.036Z,999.14
2022-12-29T11:45:27.023Z,999.23
2022-12-29T11:46:27.139Z,999.24
2022-12-29T11:47:27.009Z,999.19
2022-12-29T11:48:27.039Z,999.22
2022-12-29T11:49:27.018Z,999.26
2022-12-29T11:50:27.001Z,999.24
2022-12-29T11:51:27.034Z,999.28
2022-12-29T11:52:26.990Z,999.28
2022-12-29T11:53:27.015Z,999.25
2022-12-29T11:54:26.991Z,999.25
2022-12-29T11:55:27.012Z,999.31
2022-12-29T11:56:26.986Z,999.36
2022-12-29T11:57:26.975Z,999.28
2022-12-29T11:58:26.979Z,999.35
2022-12-29T11:59:29.721Z,999.31
2022-12-29T12:00:26.964Z,999.43
2022-12-29T12:01:27.005Z,999.45
2022-12-29T12:02:27.037Z,999.47
2022-12-29T12:03:27.119Z,999.49
2022-12-29T12:04:26.987Z,999.53
2022-12-29T12:05:26.930Z,999.57
2022-12-29T12:06:26.934Z,999.54
2022-12-29T12:07:26.924Z,999.57
2022-12-29T12:08:26.978Z,999.54
2022-12-29T12:09:26.926Z,999.56
2022-12-29T12:10:26.966Z,999.59
2022-12-29T12:11:26.908Z,999.55
2022-12-29T12:12:26.908Z,999.53
2022-12-29T12:13:26.901Z,999.39
2022-12-29T12:14:26.906Z,999.35
2022-12-29T12:15:26.906Z,999.35
2022-12-29T12:16:26.960Z,999.38
2022-12-29T12:17:26.884Z,999.44
2022-12-29T12:18:26.904Z,999.51
2022-12-29T12:19:26.883Z,999.44
2022-12-29T12:20:26.876Z,999.49
2022-12-29T12:21:26.862Z,999.50
2022-12-29T12:22:26.875Z,999.49
2022-12-29T12:23:26.865Z,999.44
2022-12-29T12:24:26.865Z,999.47
2022-12-29T12:25:26.885Z,999.45
2022-12-29T12:26:26.863Z,999.43
2022-12-29T12:27:26.836Z,999.42
2022-12-29T12:28:29.393Z,999.41
2022-12-29T12:29:26.850Z,999.42
2022-12-29T12:30:26.830Z,999.35
2022-12-29T12:31:26.895Z,999.39
2022-12-29T12:32:26.827Z,999.39
2022-12-29T12:33:26.827Z,999.37
2022-12-29T12:34:26.833Z,999.34
2022-12-29T12:35:26.805Z,999.31
2022-12-29T12:36:26.807Z,999.29
2022-12-29T12:37:26.795Z,999.29
2022-12-29T12:38:26.819Z,999.30
2022-12-29T12:39:26.803Z,999.23
2022-12-29T12:40:26.787Z,999.19
2022-12-29T12:41:26.797Z,999.25
2022-12-29T12:42:26.769Z,999.21
2022-12-29T12:43:26.771Z,999.18
2022-12-29T12:44:26.787Z,999.19